createdAt,value
2022-11-03T00:00:57.398Z,11.25
2022-11-03T00:06:07.995Z,11.29
2022-11-03T00:11:12.992Z,11.27
2022-11-03T00:16:15.927Z,11.23
2022-11-03T00:21:20.603Z,11.20
2022-11-03T00:26:26.615Z,11.26
2022-11-03T00:31:31.460Z,11.22
2022-11-03T00:36:37.265Z,11.26
2022-11-03T00:41:40.954Z,11.26
2022-11-03T00:46:44.183Z,11.28
2022-11-03T00:51:48.507Z,11.26
2022-11-03T00:56:51.599Z,11.26
2022-11-03T01:01:54.744Z,11.20
2022-11-03T01:07:00.949Z,11.23
2022-11-03T01:12:06.170Z,11.20
2022-11-03T01:17:10.799Z,11.17
2022-11-03T01:22:16.383Z,11.17
2022-11-03T01:27:22.538Z,11.19
2022-11-03T01:32:25.594Z,11.19
2022-11-03T01:37:30.057Z,11.19
2022-11-03T01:42:33.200Z,11.14
2022-11-03T01:47:37.645Z,11.17
2022-11-03T01:52:45.975Z,11.17
2022-11-03T01:57:54.729Z,11.17
2022-11-03T02:08:16.485Z,11.19
2022-11-03T02:13:21.470Z,11.22
2022-11-03T02:18:28.132Z,11.22
2022-11-03T02:23:39.759Z,11.20
2022-11-03T02:28:44.966Z,11.23
2022-11-03T02:33:55.174Z,11.23
2022-11-03T02:39:02.823Z,11.20
2022-11-03T02:44:13.563Z,11.19
2022-11-03T02:49:17.011Z,11.20
2022-11-03T02:54:25.271Z,11.26
2022-11-03T02:59:35.870Z,11.29
2022-11-03T03:04:42.049Z,11.34
2022-11-03T03:09:51.814Z,11.36
2022-11-03T03:14:59.866Z,11.40
2022-11-03T03:20:06.625Z,11.40
2022-11-03T03:25:16.536Z,11.45
2022-11-03T03:30:21.983Z,11.45
2022-11-03T03:35:30.883Z,11.47
2022-11-03T03:40:39.262Z,11.51
2022-11-03T03:45:46.463Z,11.53
2022-11-03T03:50:50.706Z,11.54
2022-11-03T03:55:54.058Z,11.53
2022-11-03T04:00:59.067Z,11.55
2022-11-03T04:06:02.762Z,11.58
2022-11-03T04:11:23.812Z,11.56
2022-11-03T04:16:42.258Z,11.56
2022-11-03T04:22:03.190Z,11.53
2022-11-03T04:27:28.615Z,11.51
2022-11-03T04:32:33.120Z,11.51
2022-11-03T04:37:36.621Z,11.52
2022-11-03T04:42:39.833Z,11.54
2022-11-03T04:47:45.380Z,11.55
2022-11-03T04:52:48.784Z,11.58
2022-11-03T04:57:58.256Z,11.63
2022-11-03T05:03:02.932Z,11.67
2022-11-03T05:08:10.521Z,11.68
2022-11-03T05:13:20.578Z,11.69
2022-11-03T05:18:28.372Z,11.71
2022-11-03T05:23:37.703Z,11.73
2022-11-03T05:28:43.561Z,11.74
2022-11-03T05:33:50.091Z,11.78
2022-11-03T05:38:57.106Z,11.84
2022-11-03T05:44:04.323Z,11.85
2022-11-03T05:49:11.377Z,11.84
2022-11-03T05:54:22.341Z,11.90
2022-11-03T05:59:29.546Z,11.89
2022-11-03T06:04:37.823Z,11.92
2022-11-03T06:09:41.193Z,11.95
2022-11-03T06:14:44.247Z,11.98
2022-11-03T06:19:50.483Z,12.00
2022-11-03T06:24:57.265Z,12.00
2022-11-03T06:30:03.360Z,12.00
2022-11-03T06:35:13.140Z,12.02
2022-11-03T06:40:37.049Z,12.08
2022-11-03T06:45:45.381Z,12.10
2022-11-03T06:50:50.295Z,12.14
2022-11-03T06:55:54.182Z,12.18
2022-11-03T07:01:03.284Z,12.21
2022-11-03T07:06:16.373Z,12.27
2022-11-03T07:11:21.779Z,12.29
2022-11-03T07:16:29.938Z,12.34
2022-11-03T07:21:38.243Z,12.41
2022-11-03T07:26:41.524Z,12.46
2022-11-03T07:31:44.577Z,12.50
2022-11-03T07:36:55.960Z,12.57
2022-11-03T07:41:59.327Z,12.64
2022-11-03T07:47:12.508Z,12.72
2022-11-03T07:52:20.922Z,12.78
2022-11-03T07:57:27.590Z,12.81
2022-11-03T08:02:34.658Z,12.90
2022-11-03T08:07:39.318Z,12.95
2022-11-03T08:12:42.949Z,13.02
2022-11-03T08:17:46.379Z,13.04
2022-11-03T08:23:19.719Z,13.07
2022-11-03T08:28:16.453Z,13.14
2022-11-03T08:33:19.552Z,13.25
2022-11-03T08:38:27.592Z,13.33
2022-11-03T08:43:30.918Z,13.45
2022-11-03T08:48:34.280Z,13.53
2022-11-03T08:53:38.772Z,13.60
2022-11-03T08:58:42.025Z,13.68
2022-11-03T09:03:45.425Z,13.80
2022-11-03T09:14:12.820Z,13.99
2022-11-03T09:19:16.424Z,14.05
2022-11-03T09:24:20.963Z,14.20
2022-11-03T09:29:24.122Z,14.27
2022-11-03T09:34:27.268Z,14.38
2022-11-03T09:39:31.736Z,14.50
2022-11-03T09:44:36.028Z,14.61
2022-11-03T09:49:39.161Z,14.60
2022-11-03T09:54:43.950Z,14.58
2022-11-03T09:59:48.603Z,14.54
2022-11-03T10:04:54.073Z,14.58
2022-11-03T10:10:00.757Z,14.59
2022-11-03T10:15:03.940Z,14.56
2022-11-03T10:20:13.126Z,14.58
2022-11-03T10:25:36.141Z,14.55
2022-11-03T10:31:10.041Z,14.56
2022-11-03T10:36:25.524Z,14.63
2022-11-03T10:41:31.447Z,14.73
2022-11-03T10:46:51.422Z,14.84
2022-11-03T10:51:59.294Z,14.92
2022-11-03T10:57:04.010Z,14.93
2022-11-03T11:02:17.157Z,15.03
2022-11-03T11:07:27.193Z,15.05
2022-11-03T11:12:31.702Z,15.14
2022-11-03T11:17:51.151Z,15.23
2022-11-03T11:22:54.231Z,15.23
2022-11-03T11:27:59.407Z,15.25
2022-11-03T11:33:13.808Z,15.38
2022-11-03T11:39:05.811Z,15.49
2022-11-03T11:44:57.196Z,15.55
2022-11-03T11:50:33.042Z,15.59
2022-11-03T11:55:55.645Z,15.92
2022-11-03T12:01:01.599Z,15.94
2022-11-03T12:06:06.880Z,15.98
2022-11-03T12:11:13.011Z,16.01
2022-11-03T12:16:36.016Z,16.01
2022-11-03T12:21:52.026Z,16.19
2022-11-03T12:26:55.141Z,16.62
2022-11-03T12:31:58.153Z,16.94
2022-11-03T12:37:03.418Z,17.06
2022-11-03T12:42:07.419Z,17.11
2022-11-03T12:47:10.418Z,17.31
2022-11-03T12:52:15.378Z,17.37
2022-11-03T12:57:18.465Z,17.41
2022-11-03T13:02:21.806Z,17.22
2022-11-03T13:07:31.830Z,17.06
2022-11-03T13:12:41.394Z,16.94
2022-11-03T13:18:12.742Z,16.88
2022-11-03T13:23:09.113Z,16.82
2022-11-03T13:28:12.491Z,16.87
2022-11-03T13:33:15.687Z,16.84
2022-11-03T13:38:21.564Z,16.81
2022-11-03T13:43:25.015Z,16.75
2022-11-03T13:59:31.329Z,16.35
2022-11-03T14:04:42.025Z,16.22
2022-11-03T14:09:47.751Z,16.11
2022-11-03T14:14:50.807Z,16.02
2022-11-03T14:19:59.162Z,15.93
2022-11-03T14:25:09.057Z,15.85
2022-11-03T14:30:13.403Z,15.77
2022-11-03T14:35:16.643Z,15.73
2022-11-03T14:40:38.464Z,15.63
2022-11-03T14:45:42.776Z,15.55
2022-11-03T14:50:47.444Z,15.46
2022-11-03T14:55:52.396Z,15.41
2022-11-03T15:00:55.819Z,15.33
2022-11-03T15:05:59.141Z,15.26
2022-11-03T15:11:05.782Z,15.21
2022-11-03T15:16:09.077Z,15.14
2022-11-03T15:21:12.803Z,15.04
2022-11-03T15:26:18.274Z,14.94
2022-11-03T15:31:21.643Z,14.82
2022-11-03T15:36:24.957Z,14.74
2022-11-03T15:41:29.626Z,14.65
2022-11-03T15:46:33.050Z,14.55
2022-11-03T15:51:36.336Z,14.47
2022-11-03T15:56:41.077Z,14.38
2022-11-03T16:01:44.225Z,14.32
2022-11-03T16:07:06.858Z,14.26
2022-11-03T16:12:11.854Z,14.16
2022-11-03T16:17:14.889Z,14.09
2022-11-03T16:22:18.329Z,13.96
2022-11-03T16:27:22.891Z,13.74
2022-11-03T16:32:26.005Z,13.45
2022-11-03T16:37:29.383Z,13.28
2022-11-03T16:42:38.426Z,13.12
2022-11-03T16:47:41.574Z,13.03
2022-11-03T16:52:44.932Z,12.94
2022-11-03T16:57:49.424Z,12.87
2022-11-03T17:02:52.682Z,12.80
2022-11-03T17:07:56.060Z,12.76
2022-11-03T17:13:00.495Z,12.74
2022-11-03T17:18:03.439Z,12.66
2022-11-03T17:23:06.412Z,12.55
2022-11-03T17:28:11.697Z,12.49
2022-11-03T17:33:19.707Z,12.43
2022-11-03T17:38:32.123Z,12.45
2022-11-03T17:43:40.511Z,12.34
2022-11-03T17:48:43.579Z,12.28
2022-11-03T17:53:46.686Z,12.24
2022-11-03T17:58:54.331Z,12.24
2022-11-03T18:03:57.408Z,12.21
2022-11-03T18:09:00.449Z,12.20
2022-11-03T18:14:04.992Z,12.18
2022-11-03T18:19:12.199Z,12.16
2022-11-03T18:24:17.955Z,12.13
2022-11-03T18:29:22.785Z,12.08
2022-11-03T18:34:28.597Z,12.06
2022-11-03T18:39:32.189Z,12.03
2022-11-03T18:44:37.081Z,11.98
2022-11-03T18:49:40.227Z,12.00
2022-11-03T18:54:47.046Z,11.95
2022-11-03T18:59:52.224Z,11.94
2022-11-03T19:04:55.548Z,11.94
2022-11-03T19:09:59.360Z,11.89
2022-11-03T19:15:03.890Z,11.89
2022-11-03T19:20:13.141Z,11.88
2022-11-03T19:25:16.437Z,11.84
2022-11-03T19:30:21.823Z,11.83
2022-11-03T19:35:29.971Z,11.80
2022-11-03T19:40:34.125Z,11.80
2022-11-03T19:45:40.270Z,11.79
2022-11-03T19:50:43.919Z,11.78
2022-11-03T19:55:47.471Z,11.77
2022-11-03T20:00:52.541Z,11.76
2022-11-03T20:05:57.897Z,11.73
2022-11-03T20:11:01.631Z,11.74
2022-11-03T20:16:12.614Z,11.78
2022-11-03T20:21:17.884Z,11.78
2022-11-03T20:26:23.624Z,11.75
2022-11-03T20:31:29.295Z,11.73
2022-11-03T20:36:34.068Z,11.69
2022-11-03T20:41:37.223Z,11.68
2022-11-03T20:46:41.923Z,11.62
2022-11-03T20:51:47.328Z,11.62
2022-11-03T20:56:50.987Z,11.61
2022-11-03T21:01:55.678Z,11.60
2022-11-03T21:06:58.922Z,11.59
2022-11-03T21:12:02.039Z,11.53
2022-11-03T21:17:31.702Z,11.46
2022-11-03T21:22:54.135Z,11.37
2022-11-03T21:27:57.369Z,11.29
2022-11-03T21:33:01.744Z,11.20
2022-11-03T21:38:05.369Z,11.20
2022-11-03T21:43:29.216Z,11.17
2022-11-03T21:48:53.149Z,11.13
2022-11-03T21:53:56.101Z,11.15
2022-11-03T21:58:59.085Z,11.16
2022-11-03T22:04:03.835Z,11.17
2022-11-03T22:09:06.905Z,11.19
2022-11-03T22:14:12.241Z,11.20
2022-11-03T22:19:35.944Z,11.22
2022-11-03T22:24:57.116Z,11.26
2022-11-03T22:30:18.685Z,11.26
2022-11-03T22:35:42.621Z,11.29
2022-11-03T22:41:06.279Z,11.31
2022-11-03T22:46:10.800Z,11.29
2022-11-03T22:51:17.085Z,11.25
2022-11-03T22:56:21.224Z,11.27
2022-11-03T23:01:26.826Z,11.29
2022-11-03T23:06:35.991Z,11.29
2022-11-03T23:11:39.687Z,11.27
2022-11-03T23:16:44.779Z,11.24
2022-11-03T23:21:51.867Z,11.24
2022-11-03T23:26:54.806Z,11.21
2022-11-03T23:31:59.724Z,11.23
2022-11-03T23:37:04.973Z,11.24
2022-11-03T23:42:08.520Z,11.22
2022-11-03T23:47:29.053Z,11.29
2022-11-03T23:52:33.434Z,11.23
2022-11-03T23:57:54.153Z,11.18
